Wednesday, December 12, 2018, 11:44 PM EST
Back to Local

KLOM, Philadelphia, Wings Field Airport

Location: Blue Bell, PA, United States Lat: 40.138
Local Time: 11:44 PM EST ( 4:44 GMT) Lon: -75.265
Time Zone: US/Eastern Elev: 301 ft

Show me the last for .
Show Decoded

2018-12-12 23:15 METAR KLOM 130415Z AUTO 10003KT 10SM CLR 00/M03 A3025 RMK AO1 =
2018-12-12 22:55 METAR KLOM 130355Z AUTO 00000KT 10SM CLR 00/M03 A3025 RMK AO1 =
2018-12-12 22:35 METAR KLOM 130335Z AUTO 00000KT 10SM CLR 00/M03 A3025 RMK AO1 =
2018-12-12 22:15 METAR KLOM 130315Z AUTO 00000KT 10SM CLR M01/M03 A3024 RMK AO1 =
2018-12-12 21:55 METAR KLOM 130255Z AUTO 00000KT 10SM CLR M01/M03 A3024 RMK AO1 =
2018-12-12 21:35 METAR KLOM 130235Z AUTO 00000KT 10SM CLR M02/M03 A3023 RMK AO1 =
2018-12-12 21:15 METAR KLOM 130215Z AUTO 00000KT 10SM CLR M03/M03 A3023 RMK AO1 =
2018-12-12 20:55 METAR KLOM 130155Z AUTO 00000KT 10SM CLR M02/M03 A3023 RMK AO1 =
2018-12-12 20:35 METAR KLOM 130135Z AUTO 00000KT 10SM CLR M03/M03 A3023 RMK AO1 =
2018-12-12 20:15 METAR KLOM 130115Z AUTO 00000KT 10SM CLR M02/M03 A3023 RMK AO1 =
2018-12-12 19:55 METAR KLOM 130055Z AUTO 00000KT 10SM CLR M02/M03 A3023 RMK AO1 =
2018-12-12 19:35 METAR KLOM 130035Z AUTO 00000KT 10SM CLR M01/M03 A3023 RMK AO1 =
2018-12-12 19:15 METAR KLOM 130015Z AUTO 00000KT 10SM CLR 00/M02 A3021 RMK AO1 =
2018-12-12 18:55 METAR KLOM 122355Z AUTO 00000KT 10SM CLR 00/M02 A3021 RMK AO1 =
2018-12-12 18:35 METAR KLOM 122335Z AUTO 00000KT 10SM CLR 00/M03 A3022 RMK AO1 =
2018-12-12 18:15 METAR KLOM 122315Z AUTO 00000KT 10SM CLR 00/M02 A3021 RMK AO1 =
2018-12-12 17:55 METAR KLOM 122255Z AUTO 00000KT 10SM CLR 00/M03 A3021 RMK AO1 =
2018-12-12 17:35 METAR KLOM 122235Z AUTO 00000KT 10SM CLR 00/M03 A3020 RMK AO1 =
2018-12-12 17:15 METAR KLOM 122215Z AUTO 00000KT 10SM CLR 00/M03 A3018 RMK AO1 =
2018-12-12 16:55 METAR KLOM 122155Z AUTO 00000KT 10SM CLR 00/M03 A3019 RMK AO1 =
2018-12-12 16:35 METAR KLOM 122135Z AUTO 00000KT 10SM CLR 01/M03 A3018 RMK AO1 =
2018-12-12 16:15 METAR KLOM 122115Z AUTO 00000KT 10SM CLR 02/M05 A3018 RMK AO1 =
2018-12-12 15:55 METAR KLOM 122055Z AUTO 00000KT 10SM CLR 03/M05 A3016 RMK AO1 =
2018-12-12 15:35 METAR KLOM 122035Z AUTO 00000KT 10SM CLR 03/M05 A3016 RMK AO1 =
2018-12-12 15:15 METAR KLOM 122015Z AUTO 00000KT 10SM CLR 04/M04 A3016 RMK AO1 =
2018-12-12 14:55 METAR KLOM 121955Z AUTO 00000KT 10SM CLR 04/M04 A3015 RMK AO1 =
2018-12-12 14:35 METAR KLOM 121935Z AUTO 00000KT 10SM CLR 05/M04 A3015 RMK AO1 =
2018-12-12 14:15 METAR KLOM 121915Z AUTO 00000KT 10SM CLR 04/M05 A3016 RMK AO1 =
2018-12-12 13:55 METAR KLOM 121855Z AUTO 29005KT 10SM CLR 04/M04 A3015 RMK AO1 =
2018-12-12 13:35 METAR KLOM 121835Z AUTO 29004KT 10SM CLR 05/M04 A3016 RMK AO1 =
2018-12-12 13:15 METAR KLOM 121815Z AUTO 25003KT 10SM CLR 04/M03 A3016 RMK AO1 =
2018-12-12 12:55 METAR KLOM 121755Z AUTO 00000KT 10SM SCT038 04/M04 A3016 RMK AO1 =
2018-12-12 12:35 METAR KLOM 121735Z AUTO 31004KT 10SM SCT038 04/M03 A3017 RMK AO1 =
2018-12-12 12:15 METAR KLOM 121715Z AUTO 00000KT 10SM CLR 03/M03 A3017 RMK AO1 =
2018-12-12 11:55 METAR KLOM 121655Z AUTO 30006KT 10SM CLR 03/M03 A3017 RMK AO1 =
2018-12-12 11:35 METAR KLOM 121635Z AUTO 29003KT 10SM CLR 03/M03 A3018 RMK AO1 =
2018-12-12 11:15 METAR KLOM 121615Z AUTO 00000KT 10SM CLR 03/M03 A3018 RMK AO1 =
2018-12-12 10:55 METAR KLOM 121555Z AUTO 29003KT 10SM CLR 03/M03 A3018 RMK AO1 =
2018-12-12 10:35 METAR KLOM 121535Z AUTO 28006KT 10SM CLR 02/M03 A3019 RMK AO1 =
2018-12-12 10:15 METAR KLOM 121515Z AUTO 28004KT 10SM CLR 02/M03 A3018 RMK AO1 =
2018-12-12 09:55 METAR KLOM 121455Z AUTO 31006KT 10SM CLR 02/M03 A3019 RMK AO1 =
2018-12-12 09:35 METAR KLOM 121435Z AUTO 28006KT 10SM CLR 01/M03 A3018 RMK AO1 =
2018-12-12 09:15 METAR KLOM 121415Z AUTO 30004KT 10SM CLR 01/M03 A3017 RMK AO1 =
2018-12-12 08:55 METAR KLOM 121355Z AUTO 30003KT 10SM CLR 01/M03 A3016 RMK AO1 =
2018-12-12 08:35 METAR KLOM 121335Z AUTO 30003KT 10SM CLR 00/M03 A3016 RMK AO1 =
2018-12-12 08:15 METAR KLOM 121315Z AUTO 00000KT 7SM CLR 00/M04 A3016 RMK AO1 =
2018-12-12 07:55 METAR KLOM 121255Z AUTO 00000KT 7SM CLR M01/M04 A3016 RMK AO1 =
2018-12-12 07:35 METAR KLOM 121235Z AUTO 00000KT 7SM CLR M01/M04 A3015 RMK AO1 =
2018-12-12 07:15 METAR KLOM 121215Z AUTO 00000KT 7SM CLR M01/M04 A3013 RMK AO1 =
2018-12-12 06:55 METAR KLOM 121155Z AUTO 00000KT 10SM CLR M01/M04 A3013 RMK AO1 =
2018-12-12 06:35 METAR KLOM 121135Z AUTO 00000KT 10SM CLR M02/M04 A3012 RMK AO1 =
2018-12-12 06:15 METAR KLOM 121115Z AUTO 00000KT 10SM CLR M01/M04 A3011 RMK AO1 =
2018-12-12 05:55 METAR KLOM 121055Z AUTO 00000KT 10SM CLR M01/M04 A3010 RMK AO1 =
2018-12-12 05:35 METAR KLOM 121035Z AUTO 00000KT 10SM CLR M01/M04 A3010 RMK AO1 =
2018-12-12 05:15 METAR KLOM 121015Z AUTO 00000KT 10SM CLR M01/M04 A3010 RMK AO1 =
2018-12-12 04:55 METAR KLOM 120955Z AUTO 00000KT 10SM CLR 00/M04 A3009 RMK AO1 =
2018-12-12 04:35 METAR KLOM 120935Z AUTO 00000KT 10SM CLR 00/M04 A3008 RMK AO1 =
2018-12-12 04:15 METAR KLOM 120915Z AUTO 00000KT 10SM CLR 00/M04 A3007 RMK AO1 =
2018-12-12 03:55 METAR KLOM 120855Z AUTO 29004KT 10SM CLR 00/M04 A3007 RMK AO1 =
2018-12-12 03:35 METAR KLOM 120835Z AUTO 30003KT 10SM SCT060 00/M05 A3006 RMK AO1 =
2018-12-12 03:15 METAR KLOM 120815Z AUTO 31003KT 10SM OVC050 00/M05 A3006 RMK AO1 =
2018-12-12 02:55 METAR KLOM 120755Z AUTO 00000KT 10SM OVC050 00/M05 A3005 RMK AO1 =
2018-12-12 02:35 METAR KLOM 120735Z AUTO 00000KT 10SM SCT040 OVC060 00/M05 A3005 RMK AO1 =
2018-12-12 02:15 METAR KLOM 120715Z AUTO 00000KT 10SM SCT042 OVC060 00/M05 A3005 RMK AO1 =
2018-12-12 01:55 METAR KLOM 120655Z AUTO 00000KT 10SM OVC060 M01/M04 A3004 RMK AO1 =
2018-12-12 01:35 METAR KLOM 120635Z AUTO 00000KT 10SM OVC060 M01/M03 A3003 RMK AO1 =
2018-12-12 01:15 METAR KLOM 120615Z AUTO 00000KT 10SM OVC060 00/M05 A3002 RMK AO1 =
2018-12-12 00:55 METAR KLOM 120555Z AUTO 00000KT 10SM OVC060 M01/M05 A3002 RMK AO1 =
2018-12-12 00:35 METAR KLOM 120535Z AUTO 00000KT 10SM OVC050 M01/M05 A3001 RMK AO1 =
2018-12-12 00:15 METAR KLOM 120515Z AUTO 00000KT 10SM SCT044 OVC050 M01/M05 A3002 RMK AO1 =
2018-12-11 23:55 METAR KLOM 120455Z AUTO 00000KT 10SM SCT044 OVC050 M01/M05 A3002 RMK AO1 =

Support USWX by starting your Amazon purchase here.